sensor_id;sensor_type;location;lat;lon;timestamp;pressure;altitude;pressure_sealevel;temperature;humidity
67842;BME280;54642;59.126;37.876;2023-03-14T00:01:33;99347.78;;;-5.48;66.43
67842;BME280;54642;59.126;37.876;2023-03-14T00:03:59;99343.44;;;-5.51;66.58
67842;BME280;54642;59.126;37.876;2023-03-14T00:06:25;99345.97;;;-5.51;66.66
67842;BME280;54642;59.126;37.876;2023-03-14T00:08:51;99275.88;;;-5.93;66.55
67842;BME280;54642;59.126;37.876;2023-03-14T00:11:19;99338.13;;;-5.57;66.95
67842;BME280;54642;59.126;37.876;2023-03-14T00:13:50;99263.09;;;-5.97;66.76
67842;BME280;54642;59.126;37.876;2023-03-14T00:16:17;99353.94;;;-5.61;67.07
67842;BME280;54642;59.126;37.876;2023-03-14T00:18:43;99257.72;;;-6.03;67.06
67842;BME280;54642;59.126;37.876;2023-03-14T00:21:10;99332.72;;;-5.65;66.94
67842;BME280;54642;59.126;37.876;2023-03-14T00:23:38;99321.69;;;-5.67;67.09
67842;BME280;54642;59.126;37.876;2023-03-14T00:26:08;99253.34;;;-6.07;67.11
67842;BME280;54642;59.126;37.876;2023-03-14T00:28:34;99338.91;;;-5.58;66.96
67842;BME280;54642;59.126;37.876;2023-03-14T00:31:08;99261.25;;;-6.00;67.36
67842;BME280;54642;59.126;37.876;2023-03-14T00:33:35;99319.38;;;-5.62;67.37
67842;BME280;54642;59.126;37.876;2023-03-14T00:36:11;99262.00;;;-6.02;67.63
67842;BME280;54642;59.126;37.876;2023-03-14T00:38:39;99319.22;;;-5.65;67.54
67842;BME280;54642;59.126;37.876;2023-03-14T00:41:11;99289.66;;;-5.86;67.57
67842;BME280;54642;59.126;37.876;2023-03-14T00:43:37;99298.72;;;-5.89;67.62
67842;BME280;54642;59.126;37.876;2023-03-14T00:46:04;99322.38;;;-5.69;67.89
67842;BME280;54642;59.126;37.876;2023-03-14T00:48:30;99317.34;;;-5.69;67.94
67842;BME280;54642;59.126;37.876;2023-03-14T00:50:56;99315.41;;;-5.75;67.93
67842;BME280;54642;59.126;37.876;2023-03-14T00:53:22;99306.31;;;-5.71;68.43
67842;BME280;54642;59.126;37.876;2023-03-14T00:55:48;99307.97;;;-5.72;67.92
67842;BME280;54642;59.126;37.876;2023-03-14T00:58:16;99290.59;;;-5.84;68.02
67842;BME280;54642;59.126;37.876;2023-03-14T01:00:43;99300.69;;;-5.84;68.13
67842;BME280;54642;59.126;37.876;2023-03-14T01:03:11;99288.06;;;-5.84;68.32
67842;BME280;54642;59.126;37.876;2023-03-14T01:05:37;99269.16;;;-5.92;68.14
67842;BME280;54642;59.126;37.876;2023-03-14T01:08:04;99249.50;;;-5.99;68.34
67842;BME280;54642;59.126;37.876;2023-03-14T01:10:30;99229.91;;;-6.05;68.44
67842;BME280;54642;59.126;37.876;2023-03-14T01:12:57;99268.72;;;-5.83;68.36
67842;BME280;54642;59.126;37.876;2023-03-14T01:15:23;99199.78;;;-6.20;68.59
67842;BME280;54642;59.126;37.876;2023-03-14T01:17:49;99183.56;;;-6.25;68.66
67842;BME280;54642;59.126;37.876;2023-03-14T01:20:16;99217.84;;;-5.93;68.74
67842;BME280;54642;59.126;37.876;2023-03-14T01:22:43;99232.69;;;-5.81;68.76
67842;BME280;54642;59.126;37.876;2023-03-14T01:25:12;99189.78;;;-6.00;68.70
67842;BME280;54642;59.126;37.876;2023-03-14T01:27:39;99145.09;;;-6.21;68.79
67842;BME280;54642;59.126;37.876;2023-03-14T01:30:06;99178.09;;;-5.98;68.67
67842;BME280;54642;59.126;37.876;2023-03-14T01:32:34;99191.09;;;-5.89;68.86
67842;BME280;54642;59.126;37.876;2023-03-14T01:34:59;99195.38;;;-5.88;68.74
67842;BME280;54642;59.126;37.876;2023-03-14T01:37:25;99195.47;;;-5.85;68.99
67842;BME280;54642;59.126;37.876;2023-03-14T01:39:51;99182.69;;;-5.89;68.76
67842;BME280;54642;59.126;37.876;2023-03-14T01:42:18;99171.47;;;-5.96;68.82
67842;BME280;54642;59.126;37.876;2023-03-14T01:44:49;99162.34;;;-5.93;68.71
67842;BME280;54642;59.126;37.876;2023-03-14T01:47:16;99164.28;;;-5.87;68.81
67842;BME280;54642;59.126;37.876;2023-03-14T01:49:44;99131.22;;;-5.93;68.88
67842;BME280;54642;59.126;37.876;2023-03-14T01:52:36;99150.19;;;-6.01;68.87
67842;BME280;54642;59.126;37.876;2023-03-14T01:55:16;99147.09;;;-5.96;68.86
67842;BME280;54642;59.126;37.876;2023-03-14T01:57:53;99135.28;;;-5.97;68.71
67842;BME280;54642;59.126;37.876;2023-03-14T02:00:22;99126.66;;;-6.02;68.88
67842;BME280;54642;59.126;37.876;2023-03-14T02:02:55;99125.28;;;-6.13;68.93
67842;BME280;54642;59.126;37.876;2023-03-14T02:05:30;99105.19;;;-6.11;68.74
67842;BME280;54642;59.126;37.876;2023-03-14T02:08:02;99118.16;;;-6.04;68.79
67842;BME280;54642;59.126;37.876;2023-03-14T02:10:38;99098.63;;;-6.08;68.85
67842;BME280;54642;59.126;37.876;2023-03-14T02:13:05;99072.94;;;-6.19;68.83
67842;BME280;54642;59.126;37.876;2023-03-14T02:15:49;99016.94;;;-6.49;68.82
67842;BME280;54642;59.126;37.876;2023-03-14T02:18:34;99085.28;;;-6.05;68.87
67842;BME280;54642;59.126;37.876;2023-03-14T02:27:10;99058.53;;;-6.02;68.95
67842;BME280;54642;59.126;37.876;2023-03-14T02:29:48;98983.22;;;-6.32;68.91
67842;BME280;54642;59.126;37.876;2023-03-14T02:32:16;99035.41;;;-5.91;68.90
67842;BME280;54642;59.126;37.876;2023-03-14T02:34:45;99010.75;;;-5.99;68.99
67842;BME280;54642;59.126;37.876;2023-03-14T02:37:15;98967.03;;;-6.19;68.79
67842;BME280;54642;59.126;37.876;2023-03-14T02:39:44;99023.81;;;-5.88;69.05
67842;BME280;54642;59.126;37.876;2023-03-14T02:42:13;98973.69;;;-6.00;69.04
67842;BME280;54642;59.126;37.876;2023-03-14T02:44:51;98946.16;;;-6.15;68.93
67842;BME280;54642;59.126;37.876;2023-03-14T02:47:23;98929.19;;;-6.19;68.83
67842;BME280;54642;59.126;37.876;2023-03-14T02:49:53;98966.56;;;-5.89;68.97
67842;BME280;54642;59.126;37.876;2023-03-14T02:52:25;98932.34;;;-6.03;69.11
67842;BME280;54642;59.126;37.876;2023-03-14T02:54:51;98966.22;;;-5.77;68.87
67842;BME280;54642;59.126;37.876;2023-03-14T02:57:17;98876.56;;;-6.11;69.01
67842;BME280;54642;59.126;37.876;2023-03-14T02:59:43;98865.06;;;-6.04;69.17
67842;BME280;54642;59.126;37.876;2023-03-14T03:02:14;98846.88;;;-5.97;68.88
67842;BME280;54642;59.126;37.876;2023-03-14T03:04:40;98848.59;;;-5.95;68.89
67842;BME280;54642;59.126;37.876;2023-03-14T03:07:07;98895.06;;;-5.47;68.79
67842;BME280;54642;59.126;37.876;2023-03-14T03:09:33;98832.63;;;-5.74;68.75
67842;BME280;54642;59.126;37.876;2023-03-14T03:11:59;98878.88;;;-5.31;68.67
67842;BME280;54642;59.126;37.876;2023-03-14T03:14:27;98862.19;;;-5.28;68.71
67842;BME280;54642;59.126;37.876;2023-03-14T03:16:56;98842.59;;;-5.33;68.67
67842;BME280;54642;59.126;37.876;2023-03-14T03:19:22;98872.69;;;-5.17;68.78
67842;BME280;54642;59.126;37.876;2023-03-14T03:21:48;98823.38;;;-5.30;68.48
67842;BME280;54642;59.126;37.876;2023-03-14T03:24:14;98836.34;;;-5.21;68.16
67842;BME280;54642;59.126;37.876;2023-03-14T03:26:40;98848.94;;;-5.00;68.25
67842;BME280;54642;59.126;37.876;2023-03-14T03:29:08;98839.81;;;-4.96;68.02
67842;BME280;54642;59.126;37.876;2023-03-14T03:31:37;98836.81;;;-4.86;68.33
67842;BME280;54642;59.126;37.876;2023-03-14T03:34:03;98828.47;;;-4.83;67.97
67842;BME280;54642;59.126;37.876;2023-03-14T03:36:29;98826.28;;;-4.74;67.79
67842;BME280;54642;59.126;37.876;2023-03-14T03:38:58;98804.34;;;-4.75;67.81
67842;BME280;54642;59.126;37.876;2023-03-14T03:41:24;98787.41;;;-4.78;67.75
67842;BME280;54642;59.126;37.876;2023-03-14T03:43:51;98757.56;;;-4.88;67.60
67842;BME280;54642;59.126;37.876;2023-03-14T03:46:17;98756.44;;;-4.72;67.78
67842;BME280;54642;59.126;37.876;2023-03-14T03:48:43;98756.94;;;-4.82;67.79
67842;BME280;54642;59.126;37.876;2023-03-14T03:51:12;98758.00;;;-4.75;67.90
67842;BME280;54642;59.126;37.876;2023-03-14T03:53:39;98723.06;;;-4.87;67.86
67842;BME280;54642;59.126;37.876;2023-03-14T03:56:09;98732.31;;;-4.88;67.81
67842;BME280;54642;59.126;37.876;2023-03-14T03:58:35;98744.78;;;-4.68;68.03
67842;BME280;54642;59.126;37.876;2023-03-14T04:01:05;98711.50;;;-4.81;68.29
67842;BME280;54642;59.126;37.876;2023-03-14T04:03:32;98734.66;;;-4.68;68.80
67842;BME280;54642;59.126;37.876;2023-03-14T04:06:00;98745.63;;;-4.68;69.08
67842;BME280;54642;59.126;37.876;2023-03-14T04:08:27;98697.44;;;-4.72;69.26
67842;BME280;54642;59.126;37.876;2023-03-14T04:10:58;98696.06;;;-4.88;69.71
67842;BME280;54642;59.126;37.876;2023-03-14T04:13:38;98702.44;;;-4.74;69.68
67842;BME280;54642;59.126;37.876;2023-03-14T04:16:14;98698.09;;;-4.78;70.05
67842;BME280;54642;59.126;37.876;2023-03-14T04:18:41;98639.75;;;-5.10;70.42
67842;BME280;54642;59.126;37.876;2023-03-14T04:21:07;98662.59;;;-4.81;70.87
67842;BME280;54642;59.126;37.876;2023-03-14T04:23:43;98680.28;;;-4.81;70.94
67842;BME280;54642;59.126;37.876;2023-03-14T04:26:09;98658.47;;;-4.79;71.16
67842;BME280;54642;59.126;37.876;2023-03-14T04:28:35;98605.91;;;-4.89;71.75
67842;BME280;54642;59.126;37.876;2023-03-14T04:31:10;98584.25;;;-4.83;72.13
67842;BME280;54642;59.126;37.876;2023-03-14T04:33:37;98550.66;;;-5.06;72.11
67842;BME280;54642;59.126;37.876;2023-03-14T04:36:04;98601.50;;;-4.69;72.73
67842;BME280;54642;59.126;37.876;2023-03-14T04:38:31;98588.91;;;-4.68;72.98
67842;BME280;54642;59.126;37.876;2023-03-14T04:40:58;98505.22;;;-5.04;72.68
67842;BME280;54642;59.126;37.876;2023-03-14T04:43:29;98572.34;;;-4.60;72.94
67842;BME280;54642;59.126;37.876;2023-03-14T04:46:02;98544.66;;;-4.55;73.01
67842;BME280;54642;59.126;37.876;2023-03-14T04:48:28;98537.91;;;-4.56;72.98
67842;BME280;54642;59.126;37.876;2023-03-14T04:50:55;98413.91;;;-5.17;73.69
67842;BME280;54642;59.126;37.876;2023-03-14T04:53:21;98542.41;;;-4.46;73.63
67842;BME280;54642;59.126;37.876;2023-03-14T04:55:53;98551.63;;;-4.48;74.00
67842;BME280;54642;59.126;37.876;2023-03-14T04:58:22;98554.19;;;-4.46;73.98
67842;BME280;54642;59.126;37.876;2023-03-14T05:00:50;98495.91;;;-4.78;74.04
67842;BME280;54642;59.126;37.876;2023-03-14T05:03:34;98521.28;;;-4.75;74.26
67842;BME280;54642;59.126;37.876;2023-03-14T05:06:21;98550.25;;;-4.38;74.67
67842;BME280;54642;59.126;37.876;2023-03-14T05:09:05;98547.63;;;-4.41;75.07
67842;BME280;54642;59.126;37.876;2023-03-14T05:12:10;98565.41;;;-4.38;75.36
67842;BME280;54642;59.126;37.876;2023-03-14T05:14:49;98519.84;;;-4.39;75.57
67842;BME280;54642;59.126;37.876;2023-03-14T05:17:39;98499.44;;;-4.73;75.86
67842;BME280;54642;59.126;37.876;2023-03-14T05:20:23;98521.69;;;-4.34;76.50
67842;BME280;54642;59.126;37.876;2023-03-14T05:23:10;98522.53;;;-4.33;76.49
67842;BME280;54642;59.126;37.876;2023-03-14T05:25:44;98530.44;;;-4.23;76.52
67842;BME280;54642;59.126;37.876;2023-03-14T05:28:29;98419.91;;;-4.86;76.77
67842;BME280;54642;59.126;37.876;2023-03-14T05:31:15;98525.34;;;-4.24;77.29
67842;BME280;54642;59.126;37.876;2023-03-14T05:33:46;98484.50;;;-4.36;77.25
67842;BME280;54642;59.126;37.876;2023-03-14T05:36:33;98496.75;;;-4.22;77.51
67842;BME280;54642;59.126;37.876;2023-03-14T05:39:19;98478.78;;;-4.31;77.70
67842;BME280;54642;59.126;37.876;2023-03-14T05:41:54;98473.16;;;-4.21;77.60
67842;BME280;54642;59.126;37.876;2023-03-14T05:44:44;98478.41;;;-4.14;77.72
67842;BME280;54642;59.126;37.876;2023-03-14T05:47:17;98399.47;;;-4.33;77.65
67842;BME280;54642;59.126;37.876;2023-03-14T05:50:03;98491.75;;;-3.90;78.08
67842;BME280;54642;59.126;37.876;2023-03-14T05:52:58;98394.75;;;-4.21;78.33
67842;BME280;54642;59.126;37.876;2023-03-14T05:55:44;98398.22;;;-4.17;78.73
67842;BME280;54642;59.126;37.876;2023-03-14T05:58:22;98410.16;;;-4.13;78.83
67842;BME280;54642;59.126;37.876;2023-03-14T06:01:09;98470.09;;;-3.78;79.01
67842;BME280;54642;59.126;37.876;2023-03-14T06:03:59;98454.72;;;-3.86;78.99
67842;BME280;54642;59.126;37.876;2023-03-14T06:06:27;98456.41;;;-3.85;78.90
67842;BME280;54642;59.126;37.876;2023-03-14T06:08:52;98456.59;;;-3.79;79.24
67842;BME280;54642;59.126;37.876;2023-03-14T06:11:18;98437.75;;;-3.89;79.30
67842;BME280;54642;59.126;37.876;2023-03-14T06:13:45;98364.00;;;-4.04;79.08
67842;BME280;54642;59.126;37.876;2023-03-14T06:16:12;98423.41;;;-3.90;79.08
67842;BME280;54642;59.126;37.876;2023-03-14T06:18:39;98487.53;;;-3.57;79.39
67842;BME280;54642;59.126;37.876;2023-03-14T06:21:07;98432.78;;;-3.86;79.22
67842;BME280;54642;59.126;37.876;2023-03-14T06:23:34;98460.34;;;-3.65;79.30
67842;BME280;54642;59.126;37.876;2023-03-14T06:26:01;98421.19;;;-3.77;79.53
67842;BME280;54642;59.126;37.876;2023-03-14T06:28:27;98429.09;;;-3.65;79.78
67842;BME280;54642;59.126;37.876;2023-03-14T06:30:58;98330.06;;;-4.12;79.67
67842;BME280;54642;59.126;37.876;2023-03-14T06:33:24;98393.25;;;-3.82;79.90
67842;BME280;54642;59.126;37.876;2023-03-14T06:35:50;98369.56;;;-3.84;79.82
67842;BME280;54642;59.126;37.876;2023-03-14T06:38:16;98435.53;;;-3.45;79.97
67842;BME280;54642;59.126;37.876;2023-03-14T06:40:42;98446.63;;;-3.39;80.06
67842;BME280;54642;59.126;37.876;2023-03-14T06:43:15;98426.19;;;-3.46;80.04
67842;BME280;54642;59.126;37.876;2023-03-14T06:45:43;98421.22;;;-3.42;80.31
67842;BME280;54642;59.126;37.876;2023-03-14T06:48:10;98422.94;;;-3.41;80.27
67842;BME280;54642;59.126;37.876;2023-03-14T06:54:02;98365.97;;;-3.59;80.07
67842;BME280;54642;59.126;37.876;2023-03-14T06:56:29;98411.50;;;-3.24;80.28
67842;BME280;54642;59.126;37.876;2023-03-14T06:58:56;98309.59;;;-3.87;80.35
67842;BME280;54642;59.126;37.876;2023-03-14T07:01:26;98422.72;;;-3.14;80.05
67842;BME280;54642;59.126;37.876;2023-03-14T07:03:54;98423.66;;;-3.11;80.47
67842;BME280;54642;59.126;37.876;2023-03-14T07:06:21;98413.69;;;-3.03;80.28
67842;BME280;54642;59.126;37.876;2023-03-14T07:08:47;98397.63;;;-3.03;80.34
67842;BME280;54642;59.126;37.876;2023-03-14T07:11:15;98344.00;;;-3.23;80.41
67842;BME280;54642;59.126;37.876;2023-03-14T07:13:41;98391.25;;;-2.86;80.41
67842;BME280;54642;59.126;37.876;2023-03-14T07:16:08;98328.88;;;-3.19;80.29
67842;BME280;54642;59.126;37.876;2023-03-14T07:18:35;98374.44;;;-2.81;80.43
67842;BME280;54642;59.126;37.876;2023-03-14T07:21:05;98365.41;;;-2.70;80.44
67842;BME280;54642;59.126;37.876;2023-03-14T07:23:33;98356.06;;;-2.71;80.35
67842;BME280;54642;59.126;37.876;2023-03-14T07:25:59;98357.88;;;-2.65;80.46
67842;BME280;54642;59.126;37.876;2023-03-14T07:28:26;98363.16;;;-2.56;80.46
67842;BME280;54642;59.126;37.876;2023-03-14T07:31:07;98331.75;;;-2.62;80.51
67842;BME280;54642;59.126;37.876;2023-03-14T07:33:33;98322.59;;;-2.54;80.72
67842;BME280;54642;59.126;37.876;2023-03-14T07:36:00;98339.75;;;-2.41;80.59
67842;BME280;54642;59.126;37.876;2023-03-14T07:38:27;98338.22;;;-2.34;80.41
67842;BME280;54642;59.126;37.876;2023-03-14T07:41:11;98324.59;;;-2.38;80.40
67842;BME280;54642;59.126;37.876;2023-03-14T07:43:47;98351.09;;;-2.22;80.71
67842;BME280;54642;59.126;37.876;2023-03-14T07:46:13;98277.06;;;-2.48;80.34
67842;BME280;54642;59.126;37.876;2023-03-14T07:48:40;98342.03;;;-2.09;80.12
67842;BME280;54642;59.126;37.876;2023-03-14T07:51:07;98351.50;;;-2.00;80.65
67842;BME280;54642;59.126;37.876;2023-03-14T07:53:33;98308.09;;;-2.14;80.40
67842;BME280;54642;59.126;37.876;2023-03-14T07:55:59;98256.94;;;-2.39;80.72
67842;BME280;54642;59.126;37.876;2023-03-14T07:58:25;98323.66;;;-1.96;80.71
67842;BME280;54642;59.126;37.876;2023-03-14T08:00:51;98330.59;;;-1.85;80.77
67842;BME280;54642;59.126;37.876;2023-03-14T08:03:17;98322.13;;;-1.84;80.81
67842;BME280;54642;59.126;37.876;2023-03-14T08:05:47;98311.94;;;-1.87;80.83
67842;BME280;54642;59.126;37.876;2023-03-14T08:08:13;98277.84;;;-2.03;80.93
67842;BME280;54642;59.126;37.876;2023-03-14T08:10:39;98314.63;;;-1.78;80.98
67842;BME280;54642;59.126;37.876;2023-03-14T08:13:05;98323.22;;;-1.71;80.99
67842;BME280;54642;59.126;37.876;2023-03-14T08:15:31;98306.31;;;-1.69;80.93
67842;BME280;54642;59.126;37.876;2023-03-14T08:17:57;98296.03;;;-1.76;81.52
67842;BME280;54642;59.126;37.876;2023-03-14T08:20:24;98294.50;;;-1.66;81.05
67842;BME280;54642;59.126;37.876;2023-03-14T08:22:50;98278.22;;;-1.77;81.01
67842;BME280;54642;59.126;37.876;2023-03-14T08:25:16;98246.59;;;-1.99;81.04
67842;BME280;54642;59.126;37.876;2023-03-14T08:27:42;98292.84;;;-1.64;80.99
67842;BME280;54642;59.126;37.876;2023-03-14T08:30:14;98307.22;;;-1.66;81.28
67842;BME280;54642;59.126;37.876;2023-03-14T08:32:40;98288.44;;;-1.74;81.62
67842;BME280;54642;59.126;37.876;2023-03-14T08:35:07;98245.78;;;-1.95;81.52
67842;BME280;54642;59.126;37.876;2023-03-14T08:37:34;98286.97;;;-1.60;81.84
67842;BME280;54642;59.126;37.876;2023-03-14T08:40:01;98276.63;;;-1.72;81.70
67842;BME280;54642;59.126;37.876;2023-03-14T08:42:30;98293.91;;;-1.49;81.49
67842;BME280;54642;59.126;37.876;2023-03-14T08:44:56;98256.31;;;-1.72;81.59
67842;BME280;54642;59.126;37.876;2023-03-14T08:47:22;98283.75;;;-1.49;81.56
67842;BME280;54642;59.126;37.876;2023-03-14T08:49:48;98292.28;;;-1.44;81.61
67842;BME280;54642;59.126;37.876;2023-03-14T08:52:14;98238.50;;;-1.74;81.73
67842;BME280;54642;59.126;37.876;2023-03-14T08:54:43;98279.75;;;-1.32;81.70
67842;BME280;54642;59.126;37.876;2023-03-14T08:57:09;98300.13;;;-1.27;81.90
67842;BME280;54642;59.126;37.876;2023-03-14T08:59:35;98275.72;;;-1.18;82.08
67842;BME280;54642;59.126;37.876;2023-03-14T09:02:01;98273.06;;;-1.25;81.74
67842;BME280;54642;59.126;37.876;2023-03-14T09:04:29;98229.66;;;-1.42;82.02
67842;BME280;54642;59.126;37.876;2023-03-14T09:06:56;98286.81;;;-1.09;82.01
67842;BME280;54642;59.126;37.876;2023-03-14T09:09:24;98227.25;;;-1.31;81.74
67842;BME280;54642;59.126;37.876;2023-03-14T09:11:50;98259.88;;;-0.98;82.08
67842;BME280;54642;59.126;37.876;2023-03-14T09:14:16;98253.16;;;-0.93;82.04
67842;BME280;54642;59.126;37.876;2023-03-14T09:16:42;98260.84;;;-0.87;82.09
67842;BME280;54642;59.126;37.876;2023-03-14T09:19:08;98241.31;;;-0.91;82.21
67842;BME280;54642;59.126;37.876;2023-03-14T09:21:34;98238.06;;;-0.78;82.43
67842;BME280;54642;59.126;37.876;2023-03-14T09:24:00;98259.34;;;-0.69;82.12
67842;BME280;54642;59.126;37.876;2023-03-14T09:26:26;98218.59;;;-0.72;82.31
67842;BME280;54642;59.126;37.876;2023-03-14T09:44:20;98239.19;;;0.58;83.32
67842;BME280;54642;59.126;37.876;2023-03-14T09:46:50;98245.94;;;0.53;83.39
67842;BME280;54642;59.126;37.876;2023-03-14T09:49:24;98211.84;;;0.35;83.15
67842;BME280;54642;59.126;37.876;2023-03-14T09:51:53;98207.53;;;0.27;83.14
67842;BME280;54642;59.126;37.876;2023-03-14T09:54:44;98242.47;;;0.45;83.18
67842;BME280;54642;59.126;37.876;2023-03-14T09:57:15;98210.22;;;0.45;83.32
67842;BME280;54642;59.126;37.876;2023-03-14T09:59:44;98226.38;;;0.46;83.11
67842;BME280;54642;59.126;37.876;2023-03-14T10:02:23;98226.38;;;0.49;83.17
67842;BME280;54642;59.126;37.876;2023-03-14T10:04:51;98220.34;;;0.31;83.05
67842;BME280;54642;59.126;37.876;2023-03-14T10:07:21;98181.13;;;0.09;83.08
67842;BME280;54642;59.126;37.876;2023-03-14T10:09:50;98268.88;;;0.51;83.03
67842;BME280;54642;59.126;37.876;2023-03-14T10:12:18;98257.78;;;0.46;83.17
67842;BME280;54642;59.126;37.876;2023-03-14T10:14:50;98273.91;;;0.42;82.83
67842;BME280;54642;59.126;37.876;2023-03-14T10:17:18;98262.03;;;0.46;83.49
67842;BME280;54642;59.126;37.876;2023-03-14T10:22:19;98268.91;;;0.54;83.49
67842;BME280;54642;59.126;37.876;2023-03-14T10:24:51;98262.97;;;0.59;83.40
67842;BME280;54642;59.126;37.876;2023-03-14T10:27:21;98275.72;;;0.59;83.45
67842;BME280;54642;59.126;37.876;2023-03-14T10:29:56;98274.88;;;0.64;83.40
67842;BME280;54642;59.126;37.876;2023-03-14T10:32:35;98262.16;;;0.67;83.45
67842;BME280;54642;59.126;37.876;2023-03-14T10:38:00;98201.72;;;0.43;83.36
67842;BME280;54642;59.126;37.876;2023-03-14T10:40:40;98268.19;;;0.82;83.53
67842;BME280;54642;59.126;37.876;2023-03-14T10:43:32;98252.06;;;0.83;83.42
67842;BME280;54642;59.126;37.876;2023-03-14T10:46:09;98207.75;;;0.62;83.34
67842;BME280;54642;59.126;37.876;2023-03-14T10:48:55;98250.41;;;0.88;83.30
67842;BME280;54642;59.126;37.876;2023-03-14T10:51:27;98261.44;;;0.90;83.39
67842;BME280;54642;59.126;37.876;2023-03-14T10:54:03;98283.53;;;0.91;83.58
67842;BME280;54642;59.126;37.876;2023-03-14T10:56:37;98264.00;;;0.96;83.54
67842;BME280;54642;59.126;37.876;2023-03-14T10:59:07;98264.06;;;1.02;83.59
67842;BME280;54642;59.126;37.876;2023-03-14T11:01:59;98178.88;;;0.63;83.52
67842;BME280;54642;59.126;37.876;2023-03-14T11:04:52;98272.59;;;1.13;83.40
67842;BME280;54642;59.126;37.876;2023-03-14T11:09:56;98253.06;;;1.20;83.79
67842;BME280;54642;59.126;37.876;2023-03-14T11:14:55;98255.63;;;1.26;83.59
67842;BME280;54642;59.126;37.876;2023-03-14T11:17:33;98249.69;;;1.30;83.71
67842;BME280;54642;59.126;37.876;2023-03-14T11:23:04;98255.66;;;1.31;83.78
67842;BME280;54642;59.126;37.876;2023-03-14T11:25:43;98251.41;;;1.39;83.81
67842;BME280;54642;59.126;37.876;2023-03-14T11:28:19;98259.09;;;1.42;83.95
67842;BME280;54642;59.126;37.876;2023-03-14T11:31:48;98247.19;;;1.46;83.79
67842;BME280;54642;59.126;37.876;2023-03-14T11:34:10;98253.13;;;1.48;83.95
67842;BME280;54642;59.126;37.876;2023-03-14T11:36:42;98265.91;;;1.49;84.29
67842;BME280;54642;59.126;37.876;2023-03-14T11:39:18;98219.91;;;1.20;84.23
67842;BME280;54642;59.126;37.876;2023-03-14T11:41:47;98275.28;;;1.58;84.50
67842;BME280;54642;59.126;37.876;2023-03-14T11:44:28;98288.94;;;1.66;84.73
67842;BME280;54642;59.126;37.876;2023-03-14T11:47:31;98274.47;;;1.73;84.45
67842;BME280;54642;59.126;37.876;2023-03-14T11:50:15;98282.13;;;1.75;84.60
67842;BME280;54642;59.126;37.876;2023-03-14T11:53:16;98287.25;;;1.78;84.81
67842;BME280;54642;59.126;37.876;2023-03-14T11:55:45;98293.19;;;1.75;84.78
67842;BME280;54642;59.126;37.876;2023-03-14T12:00:49;98288.13;;;1.92;85.14
67842;BME280;54642;59.126;37.876;2023-03-14T12:13:40;98288.97;;;2.23;84.97
67842;BME280;54642;59.126;37.876;2023-03-14T12:16:25;98287.31;;;2.25;85.12
67842;BME280;54642;59.126;37.876;2023-03-14T12:18:52;98277.06;;;2.33;85.08
67842;BME280;54642;59.126;37.876;2023-03-14T12:21:19;98294.09;;;2.39;84.96
67842;BME280;54642;59.126;37.876;2023-03-14T12:23:50;98291.56;;;2.43;85.05
67842;BME280;54642;59.126;37.876;2023-03-14T12:26:18;98285.56;;;2.47;85.16
67842;BME280;54642;59.126;37.876;2023-03-14T12:37:01;98196.16;;;2.17;84.74
67842;BME280;54642;59.126;37.876;2023-03-14T12:39:51;98265.94;;;2.60;84.66
67842;BME280;54642;59.126;37.876;2023-03-14T12:42:37;98218.25;;;2.41;84.82
67842;BME280;54642;59.126;37.876;2023-03-14T12:47:52;98254.84;;;2.71;84.42
67842;BME280;54642;59.126;37.876;2023-03-14T12:50:24;98221.66;;;2.49;84.36
67842;BME280;54642;59.126;37.876;2023-03-14T12:53:04;98199.50;;;2.39;84.56
67842;BME280;54642;59.126;37.876;2023-03-14T13:01:23;98272.72;;;2.80;84.25
67842;BME280;54642;59.126;37.876;2023-03-14T13:04:09;98269.34;;;2.81;84.25
67842;BME280;54642;59.126;37.876;2023-03-14T13:06:53;98262.50;;;2.77;84.52
67842;BME280;54642;59.126;37.876;2023-03-14T13:12:03;98276.13;;;2.85;84.54
67842;BME280;54642;59.126;37.876;2023-03-14T13:14:34;98271.00;;;2.83;84.67
67842;BME280;54642;59.126;37.876;2023-03-14T13:17:01;98260.78;;;2.85;84.48
67842;BME280;54642;59.126;37.876;2023-03-14T13:19:29;98253.94;;;2.82;84.79
67842;BME280;54642;59.126;37.876;2023-03-14T13:22:02;98269.31;;;2.90;84.61
67842;BME280;54642;59.126;37.876;2023-03-14T13:24:29;98196.06;;;2.58;84.51
67842;BME280;54642;59.126;37.876;2023-03-14T13:26:57;98255.63;;;2.97;84.38
67842;BME280;54642;59.126;37.876;2023-03-14T13:29:30;98291.44;;;2.99;84.49
67842;BME280;54642;59.126;37.876;2023-03-14T13:32:02;98271.81;;;3.02;84.60
67842;BME280;54642;59.126;37.876;2023-03-14T13:34:38;98248.78;;;2.99;84.51
67842;BME280;54642;59.126;37.876;2023-03-14T13:37:04;98247.91;;;3.05;84.36
67842;BME280;54642;59.126;37.876;2023-03-14T13:39:30;98245.41;;;2.94;84.50
67842;BME280;54642;59.126;37.876;2023-03-14T13:42:00;98276.91;;;3.07;84.30
67842;BME280;54642;59.126;37.876;2023-03-14T13:44:33;98273.50;;;3.08;84.53
67842;BME280;54642;59.126;37.876;2023-03-14T13:47:03;98238.56;;;3.01;84.45
67842;BME280;54642;59.126;37.876;2023-03-14T13:49:32;98221.50;;;2.98;84.56
67842;BME280;54642;59.126;37.876;2023-03-14T13:52:01;98241.06;;;3.10;84.28
67842;BME280;54642;59.126;37.876;2023-03-14T13:54:28;98231.72;;;3.06;84.25
67842;BME280;54642;59.126;37.876;2023-03-14T13:57:02;98187.44;;;2.84;84.58
67842;BME280;54642;59.126;37.876;2023-03-14T13:59:31;98229.13;;;3.15;84.28
67842;BME280;54642;59.126;37.876;2023-03-14T14:02:00;98220.59;;;3.09;84.34
67842;BME280;54642;59.126;37.876;2023-03-14T14:04:29;98241.03;;;3.18;84.22
67842;BME280;54642;59.126;37.876;2023-03-14T14:06:59;98260.63;;;3.25;84.41
67842;BME280;54642;59.126;37.876;2023-03-14T14:09:47;98274.25;;;3.27;84.62
67842;BME280;54642;59.126;37.876;2023-03-14T14:12:17;98274.25;;;3.27;84.43
67842;BME280;54642;59.126;37.876;2023-03-14T14:17:34;98248.72;;;3.19;84.42
67842;BME280;54642;59.126;37.876;2023-03-14T14:20:05;98217.25;;;2.99;84.51
67842;BME280;54642;59.126;37.876;2023-03-14T14:22:33;98224.88;;;3.03;84.40
67842;BME280;54642;59.126;37.876;2023-03-14T14:25:00;98264.91;;;3.24;84.40
67842;BME280;54642;59.126;37.876;2023-03-14T14:27:33;98249.53;;;3.26;84.32